Time;durP1;ratioP1;P1;durP2;ratioP2;P2;SDS_P1;SDS_P2;PMS_P1;PMS_P2;Temp;Humidity;BMP_temperature;BMP_pressure;BME280_temperature;BME280_humidity;BME280_pressure;Samples;Min_cycle;Max_cycle;Signal;HPM_P1;HPM_P2
2023/05/21 00:00:10;;;;;;;;;19.00;16.25;24.90;47.30;;;;;;111827;1237;55139;-66
2023/05/21 00:02:57;;;;;;;;;18.00;17.00;24.90;47.10;;;;;;111705;1235;54649;-68
2023/05/21 00:05:24;;;;;;;;;15.00;14.00;24.90;47.10;;;;;;112006;1241;49581;-67
2023/05/21 00:07:53;;;;;;;;;19.25;18.00;24.90;46.60;;;;;;111752;1240;50517;-67
2023/05/21 00:10:20;;;;;;;;;17.75;16.75;24.90;47.00;;;;;;111617;1240;45319;-68
2023/05/21 00:12:47;;;;;;;;;16.00;15.00;24.90;47.00;;;;;;111741;1235;55923;-66
2023/05/21 00:15:14;;;;;;;;;16.75;15.75;24.90;47.30;;;;;;112034;1238;53655;-67
2023/05/21 00:17:42;;;;;;;;;19.50;17.25;24.80;47.10;;;;;;111748;1235;49482;-67
2023/05/21 00:20:09;;;;;;;;;18.33;17.33;24.80;47.10;;;;;;111708;1241;50017;-67
2023/05/21 00:22:36;;;;;;;;;18.50;17.50;24.80;47.10;;;;;;111678;1237;46835;-66
2023/05/21 00:25:03;;;;;;;;;18.50;16.00;24.80;47.10;;;;;;112022;1235;55826;-66
2023/05/21 00:27:30;;;;;;;;;16.00;15.00;24.80;47.20;;;;;;111652;1240;54726;-67
2023/05/21 00:29:57;;;;;;;;;16.50;15.25;24.80;47.10;;;;;;111578;1239;49278;-67
2023/05/21 00:32:24;;;;;;;;;18.00;16.00;24.80;47.10;;;;;;111744;1235;49916;-67
2023/05/21 00:34:51;;;;;;;;;18.00;17.00;24.80;47.10;;;;;;111679;1240;45890;-66
2023/05/21 00:37:19;;;;;;;;;19.50;17.75;24.80;47.20;;;;;;111710;1240;55563;-67
2023/05/21 00:39:46;;;;;;;;;17.00;16.00;24.70;47.10;;;;;;111761;1240;53912;-68
2023/05/21 00:42:16;;;;;;;;;16.67;15.00;24.70;47.10;;;;;;111738;1240;50155;-67
2023/05/21 00:44:44;;;;;;;;;17.75;15.25;24.70;47.20;;;;;;111594;1237;50175;-67
2023/05/21 00:47:17;;;;;;;;;18.75;15.25;24.70;47.10;;;;;;111749;1236;45698;-66
2023/05/21 00:49:44;;;;;;;;;19.00;16.75;24.70;47.10;;;;;;111655;1237;56719;-67
2023/05/21 00:52:11;;;;;;;;;19.00;17.50;24.70;47.20;;;;;;111681;1241;54012;-68
2023/05/21 00:54:38;;;;;;;;;15.00;14.00;24.70;47.20;;;;;;112024;1237;49140;-67
2023/05/21 00:57:05;;;;;;;;;16.00;15.00;24.70;47.20;;;;;;111693;1236;50040;-67
2023/05/21 00:59:32;;;;;;;;;19.00;17.00;24.70;47.20;;;;;;111742;1241;45608;-67
2023/05/21 01:02:04;;;;;;;;;17.00;16.00;24.70;47.50;;;;;;111661;1238;55380;-67
2023/05/21 01:04:31;;;;;;;;;18.33;16.00;24.70;47.20;;;;;;111793;1240;53160;-67
2023/05/21 01:06:58;;;;;;;;;17.67;16.67;24.70;47.20;;;;;;111677;1239;49751;-67
2023/05/21 01:09:26;;;;;;;;;16.75;15.75;24.70;47.20;;;;;;111751;1235;49846;-66
2023/05/21 01:11:54;;;;;;;;;18.75;17.75;24.70;47.20;;;;;;111642;1240;45970;-67
2023/05/21 01:14:23;;;;;;;;;17.00;15.25;24.60;47.10;;;;;;111902;1237;55863;-67
2023/05/21 01:16:51;;;;;;;;;15.50;14.00;24.70;47.20;;;;;;111565;1238;54911;-66
2023/05/21 01:19:20;;;;;;;;;19.75;19.00;24.70;47.20;;;;;;111727;1240;48954;-66
2023/05/21 01:21:55;;;;;;;;;19.00;17.75;24.70;47.40;;;;;;111661;1240;49958;-67
2023/05/21 01:24:22;;;;;;;;;18.50;17.50;24.60;47.10;;;;;;111717;1235;46554;-67
2023/05/21 01:26:49;;;;;;;;;16.00;15.25;24.60;47.20;;;;;;111684;1236;55672;-67
2023/05/21 01:29:16;;;;;;;;;17.00;15.67;24.60;47.20;;;;;;111767;1235;54170;-66
2023/05/21 01:31:43;;;;;;;;;19.00;17.50;24.60;47.20;;;;;;111672;1241;49009;-67
2023/05/21 01:34:12;;;;;;;;;17.25;16.25;24.60;47.20;;;;;;111660;1239;49353;-66
2023/05/21 01:36:43;;;;;;;;;20.00;16.50;24.60;47.30;;;;;;111674;1240;45598;-66
2023/05/21 01:39:18;;;;;;;;;16.67;15.67;24.60;47.30;;;;;;111629;1237;55239;-66
2023/05/21 01:41:46;;;;;;;;;19.00;18.00;24.60;47.30;;;;;;111681;1235;53139;-67
2023/05/21 01:44:15;;;;;;;;;20.00;16.50;24.50;47.40;;;;;;111673;1238;48909;-67
2023/05/21 01:46:42;;;;;;;;;19.00;16.25;24.60;47.50;;;;;;111507;1239;49247;-66
2023/05/21 01:49:10;;;;;;;;;17.00;16.00;24.60;47.40;;;;;;111623;1240;46194;-67
2023/05/21 01:51:37;;;;;;;;;19.25;16.75;24.50;47.30;;;;;;111686;1240;55322;-66
2023/05/21 01:54:04;;;;;;;;;20.00;16.75;24.50;47.30;;;;;;111603;1239;54622;-67
2023/05/21 01:56:32;;;;;;;;;16.25;15.25;24.50;47.40;;;;;;111999;1235;50629;-69
2023/05/21 01:58:59;;;;;;;;;16.00;15.00;24.50;47.40;;;;;;111708;1239;48670;-69
2023/05/21 02:01:28;;;;;;;;;16.75;15.50;24.50;48.00;;;;;;111676;1235;46175;-67
2023/05/21 02:03:56;;;;;;;;;19.50;18.50;24.50;47.40;;;;;;111652;1241;56367;-66
2023/05/21 02:06:23;;;;;;;;;16.00;15.00;24.50;47.50;;;;;;111678;1240;54978;-66
2023/05/21 02:08:50;;;;;;;;;18.25;17.00;24.50;47.40;;;;;;111553;1243;49950;-66
2023/05/21 02:11:17;;;;;;;;;16.25;15.25;24.50;47.40;;;;;;111656;1235;50576;-67
2023/05/21 02:13:44;;;;;;;;;20.75;17.25;24.50;47.50;;;;;;111671;1236;45477;-67
2023/05/21 02:16:13;;;;;;;;;20.00;17.00;24.50;47.50;;;;;;111884;1237;56222;-67
2023/05/21 02:18:42;;;;;;;;;16.25;15.25;24.50;47.50;;;;;;111717;1236;53925;-66
2023/05/21 02:21:12;;;;;;;;;16.75;15.25;24.50;47.50;;;;;;111726;1240;50089;-67
2023/05/21 02:23:40;;;;;;;;;15.33;14.00;24.50;47.40;;;;;;111704;1237;48773;-67
2023/05/21 02:26:07;;;;;;;;;15.00;12.75;24.50;47.00;;;;;;112046;1235;45688;-67
2023/05/21 02:28:35;;;;;;;;;17.50;16.50;24.50;47.40;;;;;;111759;1240;55756;-67
2023/05/21 02:31:02;;;;;;;;;16.75;15.75;24.50;47.40;;;;;;111728;1237;53633;-66
2023/05/21 02:33:29;;;;;;;;;18.50;16.50;24.50;47.00;;;;;;111630;1237;49078;-66
2023/05/21 02:35:56;;;;;;;;;16.00;15.00;24.40;47.60;;;;;;111690;1240;49938;-67
2023/05/21 02:38:24;;;;;;;;;16.25;15.25;24.40;47.40;;;;;;111736;1236;46124;-67
2023/05/21 02:40:51;;;;;;;;;17.50;16.00;24.40;47.40;;;;;;111773;1242;55649;-67
2023/05/21 02:43:18;;;;;;;;;17.00;14.00;24.40;47.50;;;;;;111628;1240;54038;-67
2023/05/21 02:45:45;;;;;;;;;15.75;14.75;24.40;47.50;;;;;;112030;1241;50740;-67
2023/05/21 02:48:12;;;;;;;;;17.00;15.75;24.40;47.50;;;;;;111674;1239;48973;-66
2023/05/21 02:50:39;;;;;;;;;16.75;15.50;24.40;47.90;;;;;;111663;1239;46062;-66
2023/05/21 02:53:06;;;;;;;;;18.75;17.25;24.40;47.70;;;;;;111672;1237;55145;-67
2023/05/21 02:55:33;;;;;;;;;15.75;14.75;24.40;47.70;;;;;;111696;1238;53686;-67
2023/05/21 02:58:00;;;;;;;;;19.25;15.50;24.40;48.10;;;;;;111701;1235;49101;-67
2023/05/21 03:00:27;;;;;;;;;16.00;14.25;24.40;47.60;;;;;;111740;1238;48951;-67
2023/05/21 03:02:54;;;;;;;;;14.00;12.67;24.40;47.80;;;;;;111683;1237;45291;-67
2023/05/21 03:05:21;;;;;;;;;16.75;15.75;24.40;47.70;;;;;;111693;1239;55944;-66
2023/05/21 03:07:48;;;;;;;;;15.00;14.00;24.40;47.70;;;;;;111673;1238;53651;-68
2023/05/21 03:10:15;;;;;;;;;18.25;17.25;24.30;47.50;;;;;;111741;1235;50799;-67
2023/05/21 03:12:42;;;;;;;;;14.25;13.25;24.30;47.50;;;;;;111703;1235;48813;-67
2023/05/21 03:15:09;;;;;;;;;18.50;17.50;24.30;47.60;;;;;;112047;1240;45751;-65
2023/05/21 03:17:36;;;;;;;;;17.50;15.50;24.30;47.80;;;;;;111651;1235;55076;-67
2023/05/21 03:20:04;;;;;;;;;16.75;15.00;24.30;47.60;;;;;;111704;1236;53925;-65
2023/05/21 03:22:31;;;;;;;;;19.75;17.00;24.30;47.50;;;;;;111625;1236;49270;-66
2023/05/21 03:24:59;;;;;;;;;19.50;17.75;24.30;47.60;;;;;;111675;1239;49594;-67
2023/05/21 03:27:26;;;;;;;;;17.00;16.00;24.30;47.60;;;;;;111740;1235;46686;-67
2023/05/21 03:29:54;;;;;;;;;18.67;17.33;24.30;47.60;;;;;;111660;1242;55820;-67
2023/05/21 03:32:21;;;;;;;;;16.25;14.00;24.30;47.60;;;;;;111757;1240;54816;-66
2023/05/21 03:34:48;;;;;;;;;15.00;14.00;24.30;47.60;;;;;;112062;1235;49055;-67
2023/05/21 03:37:15;;;;;;;;;20.67;17.00;24.30;47.80;;;;;;111663;1240;49318;-67
2023/05/21 03:39:42;;;;;;;;;17.67;16.67;24.30;47.40;;;;;;111674;1237;46122;-67
2023/05/21 03:42:09;;;;;;;;;14.75;13.75;24.30;47.50;;;;;;111752;1235;55130;-66
2023/05/21 03:44:36;;;;;;;;;16.75;15.75;24.30;47.80;;;;;;111660;1239;54233;-66
2023/05/21 03:47:03;;;;;;;;;16.75;15.50;24.30;47.60;;;;;;111690;1238;49785;-67
2023/05/21 03:49:30;;;;;;;;;14.75;14.00;24.30;47.60;;;;;;111658;1239;49448;-66
2023/05/21 03:51:57;;;;;;;;;16.00;14.75;24.30;47.80;;;;;;111697;1241;45857;-67
2023/05/21 03:54:23;;;;;;;;;16.33;15.33;24.30;47.60;;;;;;111716;1240;56219;-67
2023/05/21 03:56:50;;;;;;;;;16.00;14.75;24.20;47.50;;;;;;111623;1240;54616;-67
2023/05/21 03:59:17;;;;;;;;;17.50;15.75;24.20;47.60;;;;;;111671;1238;49784;-66
2023/05/21 04:01:44;;;;;;;;;17.50;16.00;24.30;47.60;;;;;;111623;1239;49963;-66
2023/05/21 04:04:11;;;;;;;;;17.50;15.25;24.20;47.60;;;;;;111438;1241;45343;-67
2023/05/21 04:06:41;;;;;;;;;17.25;16.00;24.20;47.80;;;;;;111629;1236;56930;-67
2023/05/21 04:09:08;;;;;;;;;17.33;16.33;24.20;47.60;;;;;;111713;1237;54148;-67
2023/05/21 04:11:35;;;;;;;;;15.00;14.00;24.20;47.60;;;;;;111728;1242;49421;-67
2023/05/21 04:14:02;;;;;;;;;16.50;14.50;24.20;47.60;;;;;;111690;1239;49757;-67
2023/05/21 04:16:29;;;;;;;;;19.00;18.00;24.20;47.60;;;;;;112064;1239;46305;-66
2023/05/21 04:18:56;;;;;;;;;17.00;15.75;24.20;47.60;;;;;;111648;1239;55685;-67
2023/05/21 04:21:23;;;;;;;;;17.25;16.00;24.20;47.70;;;;;;111754;1235;54179;-67
2023/05/21 04:23:52;;;;;;;;;16.67;15.67;24.20;47.60;;;;;;111716;1235;49975;-67
2023/05/21 04:26:19;;;;;;;;;17.50;15.00;24.20;47.50;;;;;;111917;1235;49442;-67
2023/05/21 04:28:46;;;;;;;;;15.25;14.25;24.20;47.60;;;;;;111705;1235;45816;-67
2023/05/21 04:31:13;;;;;;;;;17.67;16.67;24.30;47.60;;;;;;111669;1239;55625;-67
2023/05/21 04:33:41;;;;;;;;;15.00;14.00;24.30;47.60;;;;;;111762;1237;54021;-66
2023/05/21 04:36:09;;;;;;;;;18.00;17.00;24.20;47.60;;;;;;111687;1235;49119;-65
2023/05/21 04:38:37;;;;;;;;;19.50;15.00;24.20;47.80;;;;;;111659;1239;48808;-66
2023/05/21 04:41:05;;;;;;;;;17.00;16.00;24.20;47.50;;;;;;111748;1240;46944;-67
2023/05/21 04:43:32;;;;;;;;;18.00;16.75;24.20;47.50;;;;;;111597;1241;55463;-67
2023/05/21 04:46:00;;;;;;;;;14.00;13.25;24.20;47.60;;;;;;112039;1237;53701;-67
2023/05/21 04:48:27;;;;;;;;;15.00;13.75;24.20;47.70;;;;;;111712;1235;48815;-67
2023/05/21 04:50:55;;;;;;;;;16.00;15.00;24.20;47.70;;;;;;111558;1241;49033;-67
2023/05/21 04:53:24;;;;;;;;;17.00;16.00;24.20;47.60;;;;;;111657;1235;45948;-66
2023/05/21 04:55:51;;;;;;;;;17.00;13.50;24.20;47.60;;;;;;111592;1238;56471;-66
2023/05/21 04:58:18;;;;;;;;;18.25;15.75;24.20;47.60;;;;;;111683;1242;53229;-67
2023/05/21 05:00:45;;;;;;;;;18.25;17.00;24.20;47.70;;;;;;111667;1240;49951;-67
2023/05/21 05:03:13;;;;;;;;;18.75;17.50;24.20;47.50;;;;;;111674;1237;50285;-66
2023/05/21 05:05:40;;;;;;;;;17.00;16.00;24.20;47.50;;;;;;111706;1235;46554;-66
2023/05/21 05:08:07;;;;;;;;;16.50;15.50;24.20;47.60;;;;;;111700;1237;55386;-66
2023/05/21 05:10:34;;;;;;;;;16.00;14.75;24.20;47.60;;;;;;111554;1241;53950;-67
2023/05/21 05:13:01;;;;;;;;;14.00;12.67;24.20;47.60;;;;;;111731;1238;49691;-67
2023/05/21 05:15:28;;;;;;;;;17.75;16.50;24.20;47.60;;;;;;112040;1235;49450;-66
2023/05/21 05:17:55;;;;;;;;;16.75;15.50;24.20;47.70;;;;;;111751;1235;45834;-67
2023/05/21 05:20:22;;;;;;;;;16.00;15.00;24.20;47.70;;;;;;111745;1235;56015;-67
2023/05/21 05:22:49;;;;;;;;;14.50;13.25;24.20;47.50;;;;;;111715;1240;53527;-67
2023/05/21 05:25:15;;;;;;;;;17.00;16.00;24.20;47.50;;;;;;112068;1239;49073;-67
2023/05/21 05:27:42;;;;;;;;;16.00;14.25;24.20;47.60;;;;;;111755;1241;50188;-66
2023/05/21 05:30:10;;;;;;;;;16.50;15.00;24.20;47.60;;;;;;111683;1240;45267;-67
2023/05/21 05:32:37;;;;;;;;;13.75;12.50;24.20;47.50;;;;;;111762;1238;55205;-68
2023/05/21 05:35:04;;;;;;;;;19.00;16.67;24.20;47.60;;;;;;111666;1235;54088;-66
2023/05/21 05:37:32;;;;;;;;;17.75;16.75;24.20;47.80;;;;;;111722;1237;49133;-67
2023/05/21 05:39:59;;;;;;;;;15.67;14.67;24.20;47.60;;;;;;111670;1235;50587;-67
2023/05/21 05:42:26;;;;;;;;;19.50;15.50;24.20;47.60;;;;;;111665;1241;46098;-67
2023/05/21 05:44:53;;;;;;;;;18.33;17.00;24.20;47.60;;;;;;112023;1235;55117;-66
2023/05/21 05:47:20;;;;;;;;;16.00;14.75;24.20;47.70;;;;;;111672;1237;53688;-67
2023/05/21 05:49:47;;;;;;;;;16.75;14.25;24.20;47.80;;;;;;111627;1240;49847;-66
2023/05/21 05:52:14;;;;;;;;;15.50;14.50;24.20;47.60;;;;;;111674;1240;49661;-66
2023/05/21 05:54:41;;;;;;;;;19.00;18.00;24.20;47.90;;;;;;111980;1240;45504;-67
2023/05/21 05:57:08;;;;;;;;;14.50;13.50;24.20;47.80;;;;;;111745;1236;56089;-67
2023/05/21 05:59:35;;;;;;;;;17.25;16.25;24.20;47.70;;;;;;111703;1240;53263;-68
2023/05/21 06:02:03;;;;;;;;;16.50;15.00;24.20;47.70;;;;;;111732;1246;49811;-66
2023/05/21 06:04:30;;;;;;;;;14.00;13.00;24.20;47.70;;;;;;112043;1239;48680;-68
2023/05/21 06:06:57;;;;;;;;;16.25;15.25;24.20;47.80;;;;;;111557;1243;45273;-67
2023/05/21 06:09:24;;;;;;;;;19.50;16.75;24.20;47.70;;;;;;111660;1241;55959;-67
2023/05/21 06:11:51;;;;;;;;;17.00;15.00;24.30;47.80;;;;;;111715;1237;53014;-67
2023/05/21 06:14:18;;;;;;;;;17.50;16.00;24.20;47.70;;;;;;111931;1235;48946;-67
2023/05/21 06:16:45;;;;;;;;;15.25;13.75;24.20;47.70;;;;;;111841;1235;48851;-67
2023/05/21 06:19:12;;;;;;;;;18.00;15.00;24.30;47.80;;;;;;111727;1241;46345;-67
2023/05/21 06:21:39;;;;;;;;;18.00;17.00;24.30;47.80;;;;;;111769;1235;55090;-68
2023/05/21 06:24:06;;;;;;;;;17.75;16.50;24.30;47.80;;;;;;111774;1235;54595;-67
2023/05/21 06:26:33;;;;;;;;;16.75;15.75;24.30;47.80;;;;;;112021;1235;49265;-66
2023/05/21 06:28:59;;;;;;;;;15.25;14.00;24.30;48.00;;;;;;111713;1240;48809;-66
2023/05/21 06:31:26;;;;;;;;;16.75;15.75;24.30;47.70;;;;;;111736;1242;46780;-66
2023/05/21 06:33:53;;;;;;;;;15.67;14.33;24.30;47.80;;;;;;111734;1240;55104;-66
2023/05/21 06:36:20;;;;;;;;;15.00;14.00;24.30;48.00;;;;;;111673;1239;53674;-67
2023/05/21 06:38:47;;;;;;;;;15.00;14.00;24.30;48.00;;;;;;111627;1237;49776;-67
2023/05/21 06:41:14;;;;;;;;;15.75;14.75;24.30;47.70;;;;;;111731;1235;49627;-67
2023/05/21 06:43:41;;;;;;;;;17.00;16.00;24.30;47.80;;;;;;111793;1236;45461;-68
2023/05/21 06:46:08;;;;;;;;;14.75;13.75;24.30;47.80;;;;;;112076;1237;56057;-66
2023/05/21 06:48:35;;;;;;;;;20.00;16.75;24.40;47.90;;;;;;111800;1235;53475;-67
2023/05/21 06:51:02;;;;;;;;;16.75;14.50;24.40;47.80;;;;;;111670;1240;49665;-67
2023/05/21 06:53:29;;;;;;;;;15.00;14.00;24.40;47.80;;;;;;111686;1242;50662;-67
2023/05/21 06:55:56;;;;;;;;;16.00;15.00;24.40;47.80;;;;;;112041;1240;45688;-67
2023/05/21 06:58:23;;;;;;;;;14.50;13.25;24.40;48.00;;;;;;111760;1240;56596;-67
2023/05/21 07:00:50;;;;;;;;;16.50;14.00;24.40;47.70;;;;;;111756;1237;54559;-68
2023/05/21 07:03:17;;;;;;;;;16.33;15.00;24.40;47.70;;;;;;111793;1235;49744;-68
2023/05/21 07:05:44;;;;;;;;;15.00;14.00;24.40;47.90;;;;;;112060;1240;49066;-67
2023/05/21 07:08:10;;;;;;;;;14.00;13.00;24.50;47.90;;;;;;111793;1240;45342;-68
2023/05/21 07:10:37;;;;;;;;;17.25;14.75;24.50;47.80;;;;;;111779;1240;55998;-67
2023/05/21 07:13:04;;;;;;;;;14.00;13.00;24.50;47.70;;;;;;111769;1235;54669;-67
2023/05/21 07:15:31;;;;;;;;;17.75;16.75;24.50;47.80;;;;;;112072;1240;50584;-67
2023/05/21 07:17:58;;;;;;;;;17.00;16.00;24.50;47.80;;;;;;111813;1237;49568;-67
2023/05/21 07:20:25;;;;;;;;;17.00;15.33;24.60;47.80;;;;;;111844;1236;45958;-66
2023/05/21 07:22:52;;;;;;;;;16.25;15.00;24.60;47.80;;;;;;111603;1238;55335;-66
2023/05/21 07:25:19;;;;;;;;;14.75;13.00;24.60;48.00;;;;;;111682;1235;53745;-67
2023/05/21 07:27:46;;;;;;;;;13.00;11.50;24.60;47.50;;;;;;111793;1239;49875;-67
2023/05/21 07:30:13;;;;;;;;;17.67;15.33;24.60;47.90;;;;;;111793;1237;49974;-67
2023/05/21 07:32:40;;;;;;;;;13.00;12.00;24.60;47.90;;;;;;111814;1239;46044;-67
2023/05/21 07:35:08;;;;;;;;;16.75;14.00;24.60;47.90;;;;;;111735;1239;55302;-66
2023/05/21 07:37:34;;;;;;;;;16.25;15.25;24.70;48.00;;;;;;111732;1235;54752;-66
2023/05/21 07:40:02;;;;;;;;;16.50;15.25;24.70;48.00;;;;;;111716;1235;49894;-68
2023/05/21 07:42:29;;;;;;;;;14.00;13.00;24.70;48.00;;;;;;111431;1238;50333;-67
2023/05/21 07:44:56;;;;;;;;;15.00;14.00;24.70;48.10;;;;;;112060;1240;45930;-67
2023/05/21 07:47:23;;;;;;;;;16.25;15.25;24.70;48.10;;;;;;111787;1235;55115;-67
2023/05/21 07:49:50;;;;;;;;;15.75;13.75;24.80;48.20;;;;;;111802;1235;54873;-67
2023/05/21 07:52:17;;;;;;;;;12.00;11.00;24.80;48.10;;;;;;111791;1238;49617;-67
2023/05/21 07:54:44;;;;;;;;;14.75;13.75;24.80;48.10;;;;;;112062;1240;50502;-67
2023/05/21 07:57:11;;;;;;;;;16.75;14.75;24.90;48.30;;;;;;111777;1235;45716;-67
2023/05/21 07:59:38;;;;;;;;;15.25;14.25;24.90;48.20;;;;;;111776;1237;54979;-67
2023/05/21 08:02:05;;;;;;;;;16.75;15.75;24.90;48.20;;;;;;111628;1240;54496;-67
2023/05/21 08:04:32;;;;;;;;;15.00;14.00;24.90;48.20;;;;;;111675;1238;49212;-68
2023/05/21 08:06:59;;;;;;;;;17.00;16.00;24.90;48.30;;;;;;111769;1235;50571;-67
2023/05/21 08:09:26;;;;;;;;;19.50;17.00;25.00;48.30;;;;;;111699;1235;45738;-65
2023/05/21 08:11:52;;;;;;;;;15.00;14.00;25.00;48.30;;;;;;111674;1237;56023;-67
2023/05/21 08:14:19;;;;;;;;;14.00;13.00;25.00;48.50;;;;;;111957;1240;54442;-68
2023/05/21 08:16:46;;;;;;;;;14.25;13.00;25.00;48.30;;;;;;111808;1240;48912;-68
2023/05/21 08:19:13;;;;;;;;;16.00;15.00;25.00;48.30;;;;;;111759;1242;49626;-67
2023/05/21 08:21:40;;;;;;;;;16.00;14.00;25.10;48.60;;;;;;111743;1240;45293;-67
2023/05/21 08:24:07;;;;;;;;;15.00;14.00;25.10;48.60;;;;;;111762;1235;55921;-67
2023/05/21 08:26:35;;;;;;;;;15.75;14.75;25.20;48.40;;;;;;111947;1238;54026;-68
2023/05/21 08:29:02;;;;;;;;;16.25;15.25;25.20;48.60;;;;;;111625;1237;50136;-67
2023/05/21 08:31:29;;;;;;;;;16.33;14.00;25.20;48.40;;;;;;111462;1238;49755;-67
2023/05/21 08:33:56;;;;;;;;;15.00;14.00;25.20;48.60;;;;;;111692;1237;46666;-67
2023/05/21 08:36:23;;;;;;;;;18.25;15.75;25.20;48.40;;;;;;111713;1235;55127;-67
2023/05/21 08:38:50;;;;;;;;;16.67;15.33;25.20;48.40;;;;;;111788;1238;54017;-67
2023/05/21 08:41:21;;;;;;;;;16.50;15.25;25.30;48.40;;;;;;111771;1240;49561;-68
2023/05/21 08:43:58;;;;;;;;;15.67;14.00;25.30;48.40;;;;;;111755;1239;49221;-67
2023/05/21 08:46:28;;;;;;;;;15.50;14.50;25.40;48.50;;;;;;111924;1241;45506;-68
2023/05/21 08:48:55;;;;;;;;;14.75;13.75;25.50;48.60;;;;;;111778;1235;54959;-67
2023/05/21 08:51:22;;;;;;;;;14.00;13.00;25.50;48.40;;;;;;111662;1238;54138;-68
2023/05/21 08:53:50;;;;;;;;;17.50;15.75;25.50;48.40;;;;;;111751;1237;50072;-67
2023/05/21 08:56:17;;;;;;;;;14.50;13.75;25.50;48.40;;;;;;111960;1238;49050;-68
2023/05/21 08:58:45;;;;;;;;;14.00;13.00;25.60;48.40;;;;;;111746;1236;45959;-68
2023/05/21 09:01:13;;;;;;;;;17.33;16.00;25.60;48.30;;;;;;111186;1240;742962;-67
2023/05/21 09:03:40;;;;;;;;;15.00;14.00;25.70;48.40;;;;;;111621;1237;54324;-68
2023/05/21 09:06:10;;;;;;;;;16.33;15.00;25.60;48.30;;;;;;112051;1237;49583;-68
2023/05/21 09:08:38;;;;;;;;;15.00;13.67;25.70;48.40;;;;;;111760;1238;49973;-67
2023/05/21 09:11:05;;;;;;;;;18.50;17.25;25.80;48.40;;;;;;111707;1238;45426;-67
2023/05/21 09:13:32;;;;;;;;;16.00;15.00;25.80;48.30;;;;;;111795;1237;55093;-67
2023/05/21 09:15:59;;;;;;;;;15.00;14.00;25.80;48.30;;;;;;111714;1240;54737;-72
2023/05/21 09:18:26;;;;;;;;;15.67;14.67;25.80;48.30;;;;;;111596;1241;49520;-68
2023/05/21 09:20:55;;;;;;;;;18.00;16.50;25.80;48.30;;;;;;111715;1239;49831;-67
2023/05/21 09:23:22;;;;;;;;;19.00;15.50;25.90;48.30;;;;;;111653;1240;45757;-67
2023/05/21 09:25:50;;;;;;;;;14.67;13.67;25.90;48.30;;;;;;112039;1237;55150;-67
2023/05/21 09:28:18;;;;;;;;;17.75;16.75;25.90;48.50;;;;;;111639;1240;53660;-65
2023/05/21 09:30:46;;;;;;;;;15.50;14.25;26.00;48.20;;;;;;111669;1235;50592;-66
2023/05/21 09:33:28;;;;;;;;;15.00;14.00;26.00;48.20;;;;;;111747;1237;49555;-67
2023/05/21 09:35:55;;;;;;;;;15.75;14.75;26.00;48.70;;;;;;112121;1240;46717;-67
2023/05/21 09:38:23;;;;;;;;;13.33;12.00;26.10;48.20;;;;;;111661;1240;55385;-67
2023/05/21 09:40:50;;;;;;;;;17.67;16.00;26.10;48.10;;;;;;111659;1241;54284;-66
2023/05/21 09:43:17;;;;;;;;;15.00;12.75;26.10;48.10;;;;;;111651;1239;50214;-67
2023/05/21 09:45:54;;;;;;;;;16.25;15.25;26.20;48.10;;;;;;111636;1235;49696;-67
2023/05/21 09:48:37;;;;;;;;;13.75;12.75;26.20;48.10;;;;;;111747;1235;45121;-66
2023/05/21 09:51:08;;;;;;;;;17.00;14.50;26.20;48.00;;;;;;111649;1235;55278;-67
2023/05/21 09:53:36;;;;;;;;;17.67;16.00;26.30;48.10;;;;;;111751;1235;54239;-67
2023/05/21 09:56:04;;;;;;;;;17.50;16.00;26.30;48.00;;;;;;111573;1241;48970;-66
2023/05/21 09:58:31;;;;;;;;;15.00;13.25;26.30;48.00;;;;;;111656;1238;48990;-66
2023/05/21 10:00:58;;;;;;;;;16.50;15.50;26.40;48.00;;;;;;111518;1241;45414;-67
2023/05/21 10:03:27;;;;;;;;;17.00;13.00;26.40;48.00;;;;;;111664;1241;55510;-67
2023/05/21 10:05:54;;;;;;;;;15.00;14.00;26.40;47.90;;;;;;111621;1240;55232;-67
2023/05/21 10:08:22;;;;;;;;;16.00;14.00;26.40;47.90;;;;;;111544;1241;49783;-67
2023/05/21 10:10:49;;;;;;;;;15.00;14.00;26.50;48.10;;;;;;111638;1241;50243;-67
2023/05/21 10:13:19;;;;;;;;;17.00;14.75;26.50;47.90;;;;;;111716;1235;46390;-66
2023/05/21 10:15:56;;;;;;;;;14.25;13.25;26.50;47.90;;;;;;111667;1245;56029;-67
2023/05/21 10:18:23;;;;;;;;;17.00;14.00;26.50;47.90;;;;;;111769;1235;54644;-67
2023/05/21 10:20:51;;;;;;;;;16.00;14.75;26.60;47.80;;;;;;111759;1241;49379;-67
2023/05/21 10:23:19;;;;;;;;;15.00;13.00;26.60;48.00;;;;;;111624;1238;49301;-67
2023/05/21 10:25:47;;;;;;;;;15.25;14.25;26.60;47.70;;;;;;111645;1240;45151;-67
2023/05/21 10:28:16;;;;;;;;;17.50;16.50;26.60;47.70;;;;;;111522;1241;56310;-67
2023/05/21 10:30:43;;;;;;;;;15.25;13.00;26.70;47.70;;;;;;111727;1236;53850;-67
2023/05/21 10:33:13;;;;;;;;;13.67;12.67;26.70;47.80;;;;;;111774;1239;49533;-67
2023/05/21 10:35:40;;;;;;;;;15.00;13.75;26.70;47.60;;;;;;112064;1239;49129;-66
2023/05/21 10:38:08;;;;;;;;;14.67;13.67;26.80;47.60;;;;;;111634;1237;45375;-67
2023/05/21 10:40:35;;;;;;;;;16.00;14.00;26.80;47.70;;;;;;111745;1235;56264;-66
2023/05/21 10:43:47;;;;;;;;;15.67;13.67;26.80;48.00;;;;;;111636;1236;53687;-67
2023/05/21 10:46:52;;;;;;;;;13.00;12.00;26.80;47.50;;;;;;111685;1239;49906;-68
2023/05/21 10:49:41;;;;;;;;;17.00;15.00;26.90;47.50;;;;;;111022;1241;49270;-67
2023/05/21 10:52:26;;;;;;;;;14.25;13.25;26.90;47.40;;;;;;111650;1239;45882;-67
2023/05/21 10:55:01;;;;;;;;;16.75;15.75;27.00;47.30;;;;;;112049;1236;54996;-67
2023/05/21 10:57:39;;;;;;;;;17.50;15.25;27.00;47.30;;;;;;111764;1240;54787;-67
2023/05/21 11:00:08;;;;;;;;;15.50;13.50;27.00;47.30;;;;;;111759;1241;48828;-67
2023/05/21 11:02:36;;;;;;;;;15.00;14.00;27.00;47.20;;;;;;111591;1242;48874;-67
2023/05/21 11:05:03;;;;;;;;;15.75;13.75;27.10;47.30;;;;;;112028;1240;45482;-68
2023/05/21 11:07:50;;;;;;;;;17.00;15.67;27.10;47.40;;;;;;111746;1240;55181;-69
2023/05/21 11:10:43;;;;;;;;;15.75;14.00;27.10;47.20;;;;;;111760;1237;54368;-66
2023/05/21 11:13:15;;;;;;;;;15.25;14.00;27.10;47.30;;;;;;111700;1237;49021;-67
2023/05/21 11:15:57;;;;;;;;;16.75;15.75;27.20;47.10;;;;;;112052;1235;49829;-67
2023/05/21 11:18:33;;;;;;;;;16.00;13.00;27.20;47.10;;;;;;111751;1239;45992;-68
2023/05/21 11:21:13;;;;;;;;;15.25;14.00;27.20;47.60;;;;;;111587;1241;55419;-67
2023/05/21 11:23:49;;;;;;;;;13.00;12.00;27.20;47.00;;;;;;111658;1238;54416;-66
2023/05/21 11:26:17;;;;;;;;;16.00;15.00;27.20;47.00;;;;;;111668;1240;49564;-67
2023/05/21 11:28:44;;;;;;;;;17.00;16.00;27.20;47.10;;;;;;111656;1235;50503;-67
2023/05/21 11:31:25;;;;;;;;;14.33;13.33;27.30;46.90;;;;;;111750;1239;45148;-67
2023/05/21 11:34:13;;;;;;;;;14.00;13.00;27.30;46.90;;;;;;111720;1235;55303;-67
2023/05/21 11:36:44;;;;;;;;;14.75;13.75;27.30;46.90;;;;;;111790;1240;53935;-67
2023/05/21 11:39:14;;;;;;;;;18.00;15.50;27.30;46.90;;;;;;111721;1236;49480;-68
2023/05/21 11:42:10;;;;;;;;;16.00;13.00;27.30;46.80;;;;;;111743;1235;49081;-68
2023/05/21 11:44:40;;;;;;;;;15.25;14.00;27.40;46.80;;;;;;111835;1238;45942;-67
2023/05/21 11:47:16;;;;;;;;;14.50;13.25;27.40;47.00;;;;;;111618;1241;55581;-66
2023/05/21 11:49:44;;;;;;;;;12.00;11.00;27.40;46.20;;;;;;111664;1240;53790;-67
2023/05/21 11:52:13;;;;;;;;;15.67;14.33;27.40;46.80;;;;;;111559;1241;49279;-67
2023/05/21 11:54:47;;;;;;;;;15.00;14.00;27.50;46.70;;;;;;111639;1235;50032;-67
2023/05/21 11:57:15;;;;;;;;;15.67;14.67;27.40;46.60;;;;;;111652;1235;45984;-66
2023/05/21 11:59:44;;;;;;;;;17.00;14.75;27.40;46.80;;;;;;111672;1237;55774;-66
2023/05/21 12:02:15;;;;;;;;;16.00;14.00;27.50;47.10;;;;;;111640;1240;54268;-67
2023/05/21 12:04:45;;;;;;;;;14.25;13.00;27.40;46.60;;;;;;112081;1235;49666;-67
2023/05/21 12:07:14;;;;;;;;;16.00;14.00;27.40;46.60;;;;;;111617;1241;49415;-66
2023/05/21 12:09:42;;;;;;;;;15.00;14.00;27.50;46.60;;;;;;111519;1240;45646;-67
2023/05/21 12:12:11;;;;;;;;;16.00;13.00;27.50;46.50;;;;;;111661;1237;55136;-67
2023/05/21 12:14:38;;;;;;;;;14.33;13.00;27.50;46.50;;;;;;112026;1245;54132;-67
2023/05/21 12:17:06;;;;;;;;;15.25;14.00;27.50;46.50;;;;;;111768;1235;48983;-67
2023/05/21 12:19:33;;;;;;;;;15.50;14.50;27.50;46.50;;;;;;111661;1242;50027;-67
2023/05/21 12:22:01;;;;;;;;;14.00;13.00;27.50;47.00;;;;;;111443;1238;45390;-67
2023/05/21 12:24:30;;;;;;;;;15.75;13.00;27.50;46.50;;;;;;111927;1237;56613;-66